createdAt,value
2018-12-25T00:02:05.382Z,9.47
2018-12-25T00:04:35.815Z,9.47
2018-12-25T00:07:06.035Z,8.03
2018-12-25T00:09:36.496Z,8.30
2018-12-25T00:12:06.753Z,6.80
2018-12-25T00:14:37.067Z,8.37
2018-12-25T00:17:07.534Z,8.17
2018-12-25T00:19:37.936Z,8.00
2018-12-25T00:22:08.454Z,8.67
2018-12-25T00:24:38.732Z,10.47
2018-12-25T00:27:08.986Z,7.80
2018-12-25T00:29:39.276Z,10.40
2018-12-25T00:32:09.558Z,7.03
2018-12-25T00:34:39.879Z,6.73
2018-12-25T00:37:10.120Z,8.37
2018-12-25T00:39:40.410Z,10.33
2018-12-25T00:42:10.785Z,8.83
2018-12-25T00:44:41.056Z,8.90
2018-12-25T00:47:11.338Z,10.00
2018-12-25T00:49:41.586Z,9.63
2018-12-25T00:52:11.870Z,7.40
2018-12-25T00:54:43.530Z,11.00
2018-12-25T00:57:13.845Z,7.30
2018-12-25T00:59:44.221Z,7.33
2018-12-25T01:02:14.436Z,9.00
2018-12-25T01:04:44.856Z,8.90
2018-12-25T01:07:15.154Z,7.07
2018-12-25T01:09:45.455Z,8.77
2018-12-25T01:12:15.798Z,8.57
2018-12-25T01:14:46.316Z,8.50
2018-12-25T01:17:16.616Z,9.83
2018-12-25T01:19:46.880Z,7.80
2018-12-25T01:22:17.128Z,8.10
2018-12-25T01:24:47.419Z,7.37
2018-12-25T01:27:17.742Z,8.33
2018-12-25T01:29:48.102Z,6.97
2018-12-25T01:32:18.356Z,8.93
2018-12-25T01:34:48.619Z,6.43
2018-12-25T01:37:18.933Z,5.87
2018-12-25T01:39:49.296Z,6.37
2018-12-25T01:42:19.557Z,7.30
2018-12-25T01:44:49.852Z,5.93
2018-12-25T01:47:20.190Z,7.53
2018-12-25T01:49:50.442Z,6.40
2018-12-25T01:52:20.690Z,9.20
2018-12-25T01:54:51.010Z,6.83
2018-12-25T01:57:21.319Z,8.23
2018-12-25T01:59:51.645Z,8.20
2018-12-25T02:02:22.117Z,6.07
2018-12-25T02:04:52.395Z,8.30
2018-12-25T02:07:22.694Z,6.93
2018-12-25T02:09:52.971Z,7.23
2018-12-25T02:12:23.285Z,8.50
2018-12-25T02:14:53.658Z,5.43
2018-12-25T02:17:23.998Z,7.87
2018-12-25T02:19:54.325Z,6.10
2018-12-25T02:22:24.563Z,7.90
2018-12-25T02:24:54.857Z,7.07
2018-12-25T02:27:25.245Z,7.13
2018-12-25T02:29:55.487Z,7.77
2018-12-25T02:32:25.803Z,6.40
2018-12-25T02:34:56.091Z,6.40
2018-12-25T02:37:26.515Z,7.13
2018-12-25T02:39:58.044Z,6.33
2018-12-25T02:42:28.382Z,6.83
2018-12-25T02:44:58.640Z,7.63
2018-12-25T02:47:28.927Z,6.20
2018-12-25T02:49:59.129Z,6.47
2018-12-25T02:52:29.754Z,6.77
2018-12-25T02:55:00.006Z,7.33
2018-12-25T02:57:30.326Z,10.73
2018-12-25T03:00:00.792Z,7.40
2018-12-25T03:02:31.448Z,7.70
2018-12-25T03:05:01.712Z,7.17
2018-12-25T03:07:32.058Z,5.73
2018-12-25T03:10:02.328Z,6.80
2018-12-25T03:12:32.610Z,10.10
2018-12-25T03:15:02.939Z,10.13
2018-12-25T03:17:33.286Z,6.43
2018-12-25T03:20:05.269Z,7.20
2018-12-25T03:22:35.553Z,8.43
2018-12-25T03:25:06.138Z,8.00
2018-12-25T03:27:36.464Z,7.17
2018-12-25T03:30:06.888Z,5.70
2018-12-25T03:32:37.193Z,9.53
2018-12-25T03:35:07.510Z,8.83
2018-12-25T03:37:37.805Z,10.63
2018-12-25T03:40:08.319Z,7.77
2018-12-25T03:42:38.732Z,9.10
2018-12-25T03:45:08.940Z,7.97
2018-12-25T03:47:39.272Z,7.43
2018-12-25T03:50:11.037Z,9.00
2018-12-25T03:52:41.489Z,7.73
2018-12-25T03:55:14.476Z,12.83
2018-12-25T03:57:44.774Z,9.47
2018-12-25T04:00:15.166Z,10.77
2018-12-25T04:02:45.436Z,9.80
2018-12-25T04:05:15.691Z,8.77
2018-12-25T04:07:45.995Z,9.43
2018-12-25T04:10:16.266Z,10.33
2018-12-25T04:12:46.606Z,11.90
2018-12-25T04:15:16.989Z,9.37
2018-12-25T04:17:47.343Z,11.50
2018-12-25T04:20:19.966Z,8.23
2018-12-25T04:22:49.473Z,11.17
2018-12-25T04:25:19.784Z,10.63
2018-12-25T04:27:50.077Z,11.37
2018-12-25T04:30:20.345Z,12.63
2018-12-25T04:32:50.611Z,11.47
2018-12-25T04:35:20.885Z,11.70
2018-12-25T04:37:51.303Z,12.83
2018-12-25T04:40:21.560Z,11.97
2018-12-25T04:42:51.889Z,13.07
2018-12-25T04:45:22.360Z,13.10
2018-12-25T04:47:52.633Z,13.00
2018-12-25T04:50:29.165Z,14.17
2018-12-25T04:52:54.922Z,15.50
2018-12-25T04:55:25.323Z,15.07
2018-12-25T04:57:55.634Z,15.70
2018-12-25T05:00:25.886Z,17.90
2018-12-25T05:02:56.158Z,17.73
2018-12-25T05:05:26.480Z,19.63
2018-12-25T05:07:56.779Z,18.43
2018-12-25T05:10:27.015Z,20.83
2018-12-25T05:12:57.323Z,19.07
2018-12-25T05:15:27.618Z,24.23
2018-12-25T05:17:57.968Z,22.10
2018-12-25T05:20:28.346Z,19.60
2018-12-25T05:22:58.651Z,24.63
2018-12-25T05:25:29.072Z,23.23
2018-12-25T05:27:59.574Z,20.80
2018-12-25T05:30:29.877Z,23.93
2018-12-25T05:33:00.210Z,23.77
2018-12-25T05:35:31.086Z,25.40
2018-12-25T05:38:01.442Z,26.63
2018-12-25T05:40:31.686Z,21.80
2018-12-25T05:43:02.055Z,24.53
2018-12-25T05:45:32.306Z,23.87
2018-12-25T05:48:02.617Z,25.97
2018-12-25T05:50:46.429Z,25.33
2018-12-25T05:53:10.923Z,29.60
2018-12-25T05:55:41.318Z,25.53
2018-12-25T05:58:11.646Z,31.73
2018-12-25T06:00:41.943Z,26.73
2018-12-25T06:03:12.193Z,26.17
2018-12-25T06:05:42.521Z,28.17
2018-12-25T06:08:12.887Z,28.57
2018-12-25T06:10:43.202Z,27.57
2018-12-25T06:13:13.517Z,27.63
2018-12-25T06:15:43.839Z,31.17
2018-12-25T06:18:14.130Z,33.33
2018-12-25T06:20:44.390Z,30.10
2018-12-25T06:23:14.723Z,29.93
2018-12-25T06:25:44.878Z,30.17
2018-12-25T06:28:15.178Z,34.37
2018-12-25T06:30:45.509Z,34.47
2018-12-25T06:33:15.821Z,29.73
2018-12-25T06:35:46.068Z,35.50
2018-12-25T06:38:16.351Z,33.90
2018-12-25T06:40:46.634Z,30.80
2018-12-25T06:43:17.084Z,38.40
2018-12-25T06:45:47.365Z,35.53
2018-12-25T06:48:17.854Z,34.80
2018-12-25T06:50:48.162Z,37.27
2018-12-25T06:53:18.510Z,31.23
2018-12-25T06:55:48.851Z,34.27
2018-12-25T06:58:19.127Z,36.13
2018-12-25T07:00:49.604Z,41.83
2018-12-25T07:03:19.907Z,36.20
2018-12-25T07:05:50.239Z,35.47
2018-12-25T07:08:20.931Z,34.13
2018-12-25T07:10:51.219Z,36.07
2018-12-25T07:13:21.547Z,36.97
2018-12-25T07:15:51.873Z,36.50
2018-12-25T07:18:22.148Z,41.03
2018-12-25T07:20:52.441Z,39.33
2018-12-25T07:23:22.700Z,39.90
2018-12-25T07:25:53.351Z,40.53
2018-12-25T07:28:23.588Z,41.50
2018-12-25T07:30:53.820Z,38.80
2018-12-25T07:33:24.175Z,41.60
2018-12-25T07:35:54.468Z,41.87
2018-12-25T07:38:24.888Z,38.77
2018-12-25T07:40:55.115Z,44.97
2018-12-25T07:43:25.502Z,39.50
2018-12-25T07:45:55.930Z,42.73
2018-12-25T07:48:26.219Z,48.03
2018-12-25T07:50:56.584Z,47.13
2018-12-25T07:53:26.899Z,48.40
2018-12-25T07:55:57.172Z,46.40
2018-12-25T07:58:27.488Z,44.83
2018-12-25T08:00:57.766Z,46.37
2018-12-25T08:03:28.346Z,40.03
2018-12-25T08:05:58.622Z,48.53
2018-12-25T08:08:28.946Z,41.40
2018-12-25T08:10:59.310Z,41.97
2018-12-25T08:13:29.673Z,43.30
2018-12-25T08:16:00.160Z,46.53
2018-12-25T08:18:30.447Z,40.73
2018-12-25T08:21:00.724Z,41.40
2018-12-25T08:23:30.986Z,38.23
2018-12-25T08:26:01.570Z,41.17
2018-12-25T08:28:31.879Z,37.80
2018-12-25T08:31:02.327Z,40.03
2018-12-25T08:33:34.715Z,40.23
2018-12-25T08:36:05.120Z,41.13
2018-12-25T08:38:35.896Z,44.07
2018-12-25T08:41:06.295Z,40.47
2018-12-25T08:43:37.002Z,38.60
2018-12-25T08:46:07.500Z,41.83
2018-12-25T08:48:38.062Z,42.07
2018-12-25T08:51:08.298Z,40.97
2018-12-25T08:53:38.613Z,41.93
2018-12-25T08:56:08.950Z,40.60
2018-12-25T08:58:39.312Z,41.60
2018-12-25T09:01:09.573Z,43.27
2018-12-25T09:03:39.831Z,42.03
2018-12-25T09:06:10.124Z,42.00
2018-12-25T09:08:40.368Z,41.27
2018-12-25T09:11:10.675Z,45.27
2018-12-25T09:13:44.007Z,45.33
2018-12-25T09:16:14.321Z,49.90
2018-12-25T09:18:44.930Z,54.50
2018-12-25T09:21:15.275Z,51.33
2018-12-25T09:23:45.642Z,58.00
2018-12-25T09:26:15.961Z,52.77
2018-12-25T09:28:46.274Z,55.10
2018-12-25T09:31:16.593Z,58.60
2018-12-25T09:33:46.887Z,53.03
2018-12-25T09:36:17.182Z,52.13
2018-12-25T09:38:47.593Z,55.40
2018-12-25T09:41:18.105Z,55.07
2018-12-25T09:43:48.597Z,47.77
2018-12-25T09:46:18.989Z,48.97
2018-12-25T09:48:49.297Z,51.47
2018-12-25T09:51:20.158Z,47.83
2018-12-25T09:53:50.615Z,48.03
2018-12-25T09:56:20.929Z,51.73
2018-12-25T09:58:51.468Z,50.73
2018-12-25T10:01:21.771Z,47.63
2018-12-25T10:03:52.220Z,49.57
2018-12-25T10:06:22.519Z,48.57
2018-12-25T10:08:52.814Z,42.53
2018-12-25T10:11:23.771Z,39.43
2018-12-25T10:13:55.338Z,45.33
2018-12-25T10:16:25.681Z,42.50
2018-12-25T10:18:55.895Z,40.60
2018-12-25T10:21:26.262Z,46.00
2018-12-25T10:23:56.650Z,40.73
2018-12-25T10:26:26.973Z,44.87
2018-12-25T10:28:57.804Z,40.87
2018-12-25T10:31:28.207Z,45.37
2018-12-25T10:33:58.536Z,42.60
2018-12-25T10:36:28.710Z,37.43
2018-12-25T10:38:59.177Z,42.00
2018-12-25T10:41:29.668Z,41.87
2018-12-25T10:44:00.675Z,44.03
2018-12-25T10:46:31.040Z,43.53
2018-12-25T10:49:01.585Z,47.47
2018-12-25T10:51:31.884Z,42.33
2018-12-25T10:54:02.376Z,43.83
2018-12-25T10:56:32.646Z,47.03
2018-12-25T10:59:03.050Z,44.10
2018-12-25T11:01:36.175Z,45.80
2018-12-25T11:04:06.470Z,42.23
2018-12-25T11:06:36.754Z,49.43
2018-12-25T11:09:07.220Z,51.97
2018-12-25T11:11:37.479Z,46.33
2018-12-25T11:14:07.792Z,47.57
2018-12-25T11:16:38.244Z,49.67
2018-12-25T11:19:08.706Z,43.70
2018-12-25T11:21:39.401Z,52.77
2018-12-25T11:24:09.726Z,48.17
2018-12-25T11:26:40.021Z,52.83
2018-12-25T11:29:10.309Z,47.10
2018-12-25T11:31:40.564Z,40.80
2018-12-25T11:34:10.880Z,42.40
2018-12-25T11:36:41.203Z,45.83
2018-12-25T11:39:11.512Z,46.57
2018-12-25T11:41:42.251Z,44.73
2018-12-25T11:44:12.502Z,51.67
2018-12-25T11:46:42.966Z,51.90
2018-12-25T11:49:13.444Z,48.70
2018-12-25T11:51:43.809Z,49.93
2018-12-25T11:54:14.178Z,49.13
2018-12-25T11:56:44.575Z,47.67
2018-12-25T11:59:15.033Z,42.97
2018-12-25T12:01:45.540Z,46.50
2018-12-25T12:04:15.833Z,49.83
2018-12-25T12:06:46.122Z,43.87
2018-12-25T12:09:16.406Z,45.43
2018-12-25T12:11:46.729Z,44.47
2018-12-25T12:14:17.141Z,42.57
2018-12-25T12:16:47.536Z,41.03
2018-12-25T12:19:17.874Z,44.13
2018-12-25T12:21:48.315Z,47.83
2018-12-25T12:24:18.628Z,44.40
2018-12-25T12:26:48.927Z,47.20
2018-12-25T12:29:19.212Z,48.03
2018-12-25T12:31:49.531Z,43.20
2018-12-25T12:34:19.990Z,45.03
2018-12-25T12:36:50.382Z,44.83
2018-12-25T12:39:20.779Z,48.53
2018-12-25T12:41:51.298Z,42.07
2018-12-25T12:44:21.695Z,42.37
2018-12-25T12:46:52.058Z,41.70
2018-12-25T12:49:22.365Z,37.50
2018-12-25T12:51:53.025Z,50.37
2018-12-25T12:54:23.376Z,40.63
2018-12-25T12:56:54.028Z,35.40
2018-12-25T12:59:24.285Z,39.07
2018-12-25T13:01:54.595Z,36.97
2018-12-25T13:04:24.919Z,37.97
2018-12-25T13:06:55.245Z,35.23
2018-12-25T13:09:26.038Z,31.40
2018-12-25T13:11:56.332Z,33.37
2018-12-25T13:14:26.984Z,30.40
2018-12-25T13:16:57.359Z,30.77
2018-12-25T13:19:27.835Z,37.70
2018-12-25T13:21:58.255Z,34.90
2018-12-25T13:24:28.710Z,27.43
2018-12-25T13:26:59.031Z,29.87
2018-12-25T13:29:29.564Z,27.83
2018-12-25T13:32:00.106Z,27.13
2018-12-25T13:34:30.481Z,25.13
2018-12-25T13:37:00.719Z,27.00
2018-12-25T13:39:31.450Z,33.47
2018-12-25T13:42:01.687Z,28.33
2018-12-25T13:44:33.249Z,28.50
2018-12-25T13:47:03.558Z,28.13
2018-12-25T13:49:33.938Z,25.73
2018-12-25T13:52:04.260Z,24.97
2018-12-25T13:54:34.676Z,28.63
2018-12-25T13:57:04.990Z,22.30
2018-12-25T13:59:35.228Z,24.20
2018-12-25T14:02:05.589Z,23.10
2018-12-25T14:04:35.842Z,27.13
2018-12-25T14:07:06.193Z,27.33
2018-12-25T14:09:36.536Z,26.80
2018-12-25T14:12:06.842Z,26.87
2018-12-25T14:14:37.155Z,26.73
2018-12-25T14:17:07.558Z,28.20
2018-12-25T14:19:37.922Z,28.23
2018-12-25T14:22:08.260Z,27.73
2018-12-25T14:24:39.140Z,28.37
2018-12-25T14:27:10.752Z,27.87
2018-12-25T14:29:41.178Z,29.57
2018-12-25T14:32:11.423Z,26.87
2018-12-25T14:34:41.751Z,30.70
2018-12-25T14:37:13.031Z,30.07
2018-12-25T14:39:43.432Z,27.27
2018-12-25T14:42:13.761Z,30.00
2018-12-25T14:44:44.068Z,28.87
2018-12-25T14:47:14.337Z,28.00
2018-12-25T14:49:44.610Z,26.20
2018-12-25T14:52:15.003Z,26.80
2018-12-25T14:54:47.846Z,29.53
2018-12-25T14:57:18.990Z,27.33
2018-12-25T14:59:49.355Z,27.37
2018-12-25T15:02:19.876Z,37.03
2018-12-25T15:04:50.479Z,27.80
2018-12-25T15:07:20.914Z,28.77
2018-12-25T15:09:51.222Z,30.40
2018-12-25T15:12:21.552Z,29.57
2018-12-25T15:14:51.907Z,31.23
2018-12-25T15:17:22.404Z,29.23
2018-12-25T15:19:52.728Z,29.53
2018-12-25T15:22:23.828Z,35.97
2018-12-25T15:24:54.144Z,33.00
2018-12-25T15:27:24.446Z,31.80
2018-12-25T15:29:54.785Z,37.17
2018-12-25T15:32:25.407Z,38.17
2018-12-25T15:34:57.302Z,36.03
2018-12-25T15:37:27.532Z,36.17
2018-12-25T15:39:57.850Z,36.60
2018-12-25T15:42:28.108Z,40.17
2018-12-25T15:44:58.416Z,43.63
2018-12-25T15:47:28.996Z,36.53
2018-12-25T15:49:59.292Z,46.53
2018-12-25T15:52:29.643Z,52.13
2018-12-25T15:55:00.003Z,43.43
2018-12-25T15:57:30.302Z,51.50
2018-12-25T16:00:00.832Z,47.57
2018-12-25T16:02:31.166Z,43.47
2018-12-25T16:05:01.493Z,47.30
2018-12-25T16:07:31.774Z,50.67
2018-12-25T16:10:02.081Z,54.73
2018-12-25T16:12:32.482Z,50.03
2018-12-25T16:15:02.814Z,53.23
2018-12-25T16:17:33.236Z,51.47
2018-12-25T16:20:03.667Z,53.43
2018-12-25T16:22:33.957Z,57.63
2018-12-25T16:25:04.287Z,52.53
2018-12-25T16:27:34.602Z,54.63
2018-12-25T16:30:06.565Z,56.30
2018-12-25T16:32:36.988Z,61.47
2018-12-25T16:35:07.956Z,67.53
2018-12-25T16:37:38.306Z,66.37
2018-12-25T16:40:09.680Z,77.40
2018-12-25T16:42:40.006Z,73.37
2018-12-25T16:45:10.297Z,74.37
2018-12-25T16:47:40.676Z,75.33
2018-12-25T16:50:11.102Z,80.73
2018-12-25T16:52:41.573Z,74.10
2018-12-25T16:55:11.858Z,73.63
2018-12-25T16:57:42.240Z,78.23
2018-12-25T17:00:12.898Z,83.80
2018-12-25T17:02:43.218Z,83.70
2018-12-25T17:05:13.675Z,89.20
2018-12-25T17:07:44.062Z,87.80
2018-12-25T17:10:14.404Z,81.57
2018-12-25T17:12:44.895Z,97.60
2018-12-25T17:15:15.101Z,92.50
2018-12-25T17:17:45.445Z,89.10
2018-12-25T17:20:15.774Z,88.13
2018-12-25T17:22:46.034Z,88.53
2018-12-25T17:25:16.499Z,83.07
2018-12-25T17:27:46.780Z,78.33
2018-12-25T17:30:17.108Z,84.17
2018-12-25T17:32:47.385Z,78.07
2018-12-25T17:35:17.789Z,74.63
2018-12-25T17:37:48.562Z,74.50
2018-12-25T17:40:18.914Z,69.50
2018-12-25T17:42:49.244Z,66.97
2018-12-25T17:45:19.789Z,74.20
2018-12-25T17:47:50.408Z,72.50
2018-12-25T17:50:20.803Z,72.07
2018-12-25T17:52:51.090Z,74.23
2018-12-25T17:55:21.434Z,69.27
2018-12-25T17:57:52.456Z,74.27
2018-12-25T18:00:22.846Z,73.67
2018-12-25T18:02:53.122Z,63.73
2018-12-25T18:05:23.460Z,69.17
2018-12-25T18:07:53.801Z,72.33
2018-12-25T18:10:24.167Z,68.70
2018-12-25T18:12:54.445Z,63.13
2018-12-25T18:15:24.903Z,68.67
2018-12-25T18:17:55.188Z,72.70
2018-12-25T18:20:25.560Z,72.67
2018-12-25T18:22:55.904Z,67.40
2018-12-25T18:25:26.255Z,69.50
2018-12-25T18:27:56.584Z,75.33
2018-12-25T18:30:26.818Z,72.50
2018-12-25T18:32:57.339Z,70.07
2018-12-25T18:35:27.821Z,73.60
2018-12-25T18:37:58.175Z,78.53
2018-12-25T18:40:28.629Z,72.57
2018-12-25T18:42:58.983Z,72.93
2018-12-25T18:45:29.421Z,72.17
2018-12-25T18:47:59.692Z,68.57
2018-12-25T18:50:33.658Z,59.77
2018-12-25T18:53:04.036Z,62.67
2018-12-25T18:55:34.495Z,65.57
2018-12-25T18:58:04.777Z,62.90
2018-12-25T19:00:35.055Z,63.13
2018-12-25T19:03:06.323Z,60.23
2018-12-25T19:05:36.635Z,53.87
2018-12-25T19:08:07.099Z,51.93
2018-12-25T19:10:37.811Z,47.90
2018-12-25T19:13:08.454Z,53.80
2018-12-25T19:15:38.629Z,53.13
2018-12-25T19:18:12.032Z,50.33
2018-12-25T19:20:42.286Z,42.77
2018-12-25T19:23:12.723Z,48.27
2018-12-25T19:25:43.009Z,45.23
2018-12-25T19:28:13.374Z,43.87
2018-12-25T19:30:43.619Z,38.17
2018-12-25T19:33:14.368Z,43.13
2018-12-25T19:35:44.621Z,41.03
2018-12-25T19:38:16.163Z,41.30
2018-12-25T19:40:46.401Z,41.53
2018-12-25T19:43:16.705Z,41.67
2018-12-25T19:45:47.567Z,42.93
2018-12-25T19:48:17.908Z,42.63
2018-12-25T19:50:48.261Z,42.00
2018-12-25T19:53:18.587Z,40.57
2018-12-25T19:55:52.637Z,44.47
2018-12-25T19:58:22.928Z,43.77
2018-12-25T20:00:53.445Z,47.73
2018-12-25T20:03:53.662Z,48.57
2018-12-25T20:07:09.973Z,46.60
2018-12-25T20:10:00.766Z,40.77
2018-12-25T20:13:22.229Z,43.03
2018-12-25T20:16:30.075Z,46.57
2018-12-25T20:19:22.599Z,45.77
2018-12-25T20:22:43.427Z,49.83
2018-12-25T20:25:50.667Z,44.97
2018-12-25T20:29:02.569Z,42.67
2018-12-25T20:32:04.187Z,49.53
2018-12-25T20:35:17.082Z,51.10
2018-12-25T20:38:24.212Z,41.03
2018-12-25T20:41:43.824Z,37.87
2018-12-25T20:44:48.116Z,38.60
2018-12-25T20:48:14.523Z,35.93
2018-12-25T20:51:39.974Z,35.10
2018-12-25T20:54:38.530Z,37.40
2018-12-25T20:57:55.816Z,39.63
2018-12-25T21:01:18.168Z,39.53
2018-12-25T21:04:32.467Z,39.37
2018-12-25T21:07:49.318Z,40.97
2018-12-25T21:11:03.402Z,46.53
2018-12-25T21:14:37.291Z,41.97
2018-12-25T21:17:46.154Z,45.53
2018-12-25T21:21:05.540Z,45.70
2018-12-25T21:24:11.709Z,43.30
2018-12-25T21:27:18.172Z,49.43
2018-12-25T21:29:48.374Z,50.13
2018-12-25T21:32:18.697Z,54.63
2018-12-25T21:34:49.554Z,49.23
2018-12-25T21:37:20.936Z,52.67
2018-12-25T21:39:51.283Z,53.97
2018-12-25T21:42:22.324Z,52.67
2018-12-25T21:44:53.098Z,57.97
2018-12-25T21:47:24.004Z,54.93
2018-12-25T21:49:54.796Z,52.23
2018-12-25T21:52:25.326Z,57.17
2018-12-25T21:54:55.934Z,54.40
2018-12-25T21:57:26.410Z,53.87
2018-12-25T21:59:56.956Z,53.93
2018-12-25T22:02:27.488Z,58.87
2018-12-25T22:04:58.007Z,51.37
2018-12-25T22:07:28.408Z,53.13
2018-12-25T22:09:58.650Z,52.07
2018-12-25T22:12:29.029Z,44.10
2018-12-25T22:14:59.345Z,45.83
2018-12-25T22:17:29.614Z,41.73
2018-12-25T22:20:00.895Z,39.60
2018-12-25T22:22:31.268Z,39.20
2018-12-25T22:25:01.620Z,42.50
2018-12-25T22:27:32.137Z,52.97
2018-12-25T22:30:02.502Z,38.60
2018-12-25T22:32:32.827Z,43.57
2018-12-25T22:35:03.096Z,40.57
2018-12-25T22:37:33.392Z,46.93
2018-12-25T22:40:03.896Z,44.73
2018-12-25T22:42:34.214Z,41.47
2018-12-25T22:45:05.237Z,35.87
2018-12-25T22:47:35.562Z,37.17
2018-12-25T22:50:06.672Z,34.43
2018-12-25T22:52:37.026Z,33.10
2018-12-25T22:55:08.654Z,29.27
2018-12-25T22:57:38.949Z,30.90
2018-12-25T23:00:12.142Z,26.60
2018-12-25T23:02:44.105Z,29.90
2018-12-25T23:05:14.418Z,27.40
2018-12-25T23:07:44.880Z,32.37
2018-12-25T23:10:15.509Z,27.70
2018-12-25T23:12:45.982Z,25.10
2018-12-25T23:15:16.292Z,28.87
2018-12-25T23:17:46.656Z,29.73
2018-12-25T23:20:16.942Z,33.90
2018-12-25T23:22:47.323Z,43.47
2018-12-25T23:25:17.630Z,36.73
2018-12-25T23:27:47.955Z,31.87
2018-12-25T23:30:18.343Z,33.47
2018-12-25T23:32:48.694Z,39.17
2018-12-25T23:35:19.043Z,31.97
2018-12-25T23:37:49.361Z,35.07
2018-12-25T23:40:19.687Z,33.80
2018-12-25T23:42:49.907Z,35.33
2018-12-25T23:45:20.166Z,34.53
2018-12-25T23:47:50.460Z,40.97
2018-12-25T23:50:20.747Z,39.57
2018-12-25T23:52:51.410Z,35.93
2018-12-25T23:55:22.879Z,41.83
2018-12-25T23:57:53.413Z,33.53
